Time;durP1;ratioP1;P1;durP2;ratioP2;P2;SDS_P1;SDS_P2;PMS_P1;PMS_P2;Temp;Humidity;BMP_temperature;BMP_pressure;BME280_temperature;BME280_humidity;BME280_pressure;Samples;Min_cycle;Max_cycle;Signal;HPM_P1;HPM_P2
2023/06/08 00:02:08;;;;;;;24.08;9.63;;;;;;;;;;5033850;28;20250;-58
2023/06/08 00:04:34;;;;;;;19.90;8.30;;;;;;;;;;5034286;28;20220;-58
2023/06/08 00:06:59;;;;;;;16.52;8.25;;;;;;;;;;5033913;28;20216;-58
2023/06/08 00:09:25;;;;;;;18.23;8.48;;;;;;;;;;5032403;28;20207;-59
2023/06/08 00:11:52;;;;;;;22.80;9.00;;;;;;;;;;5034366;28;20691;-59
2023/06/08 00:14:18;;;;;;;20.38;9.25;;;;;;;;;;5032999;28;20236;-59
2023/06/08 00:16:43;;;;;;;24.55;9.98;;;;;;;;;;5034112;28;20214;-59
2023/06/08 00:19:10;;;;;;;19.67;9.63;;;;;;;;;;5033617;28;20231;-58
2023/06/08 00:21:37;;;;;;;25.00;9.70;;;;;;;;;;5033658;28;20208;-58
2023/06/08 00:24:02;;;;;;;20.83;9.20;;;;;;;;;;5033438;28;20334;-58
2023/06/08 00:26:27;;;;;;;27.52;9.18;;;;;;;;;;5034046;28;20298;-59
2023/06/08 00:28:53;;;;;;;21.75;9.90;;;;;;;;;;5033326;28;20218;-58
2023/06/08 00:31:18;;;;;;;16.55;9.50;;;;;;;;;;5033493;28;20216;-58
2023/06/08 00:33:44;;;;;;;24.40;10.82;;;;;;;;;;5033552;28;20235;-59
2023/06/08 00:36:09;;;;;;;26.83;10.32;;;;;;;;;;5032684;28;20305;-58
2023/06/08 00:38:34;;;;;;;18.10;9.98;;;;;;;;;;5033960;28;20218;-58
2023/06/08 00:41:00;;;;;;;23.30;10.30;;;;;;;;;;5033030;28;20212;-58
2023/06/08 00:43:25;;;;;;;20.10;10.20;;;;;;;;;;5033054;28;20214;-58
2023/06/08 00:45:51;;;;;;;26.85;9.35;;;;;;;;;;5033793;28;20211;-58
2023/06/08 00:48:16;;;;;;;23.48;10.00;;;;;;;;;;5032704;28;20253;-58
2023/06/08 00:50:43;;;;;;;21.75;11.18;;;;;;;;;;5032236;28;20219;-58
2023/06/08 00:53:08;;;;;;;21.55;10.25;;;;;;;;;;5043526;28;20203;-58
2023/06/08 00:55:33;;;;;;;27.13;11.00;;;;;;;;;;5048491;28;20303;-58
2023/06/08 00:58:00;;;;;;;21.55;10.50;;;;;;;;;;5033084;28;20200;-58
2023/06/08 01:00:27;;;;;;;23.73;10.05;;;;;;;;;;5033284;28;20207;-59
2023/06/08 01:02:53;;;;;;;27.67;11.07;;;;;;;;;;5031406;28;20238;-59
2023/06/08 01:05:18;;;;;;;19.25;10.80;;;;;;;;;;5032734;28;20211;-58
2023/06/08 01:07:50;;;;;;;23.73;11.50;;;;;;;;;;5033271;28;20208;-58
2023/06/08 01:10:25;;;;;;;20.88;10.48;;;;;;;;;;5032239;28;20211;-58
2023/06/08 01:12:52;;;;;;;24.13;11.60;;;;;;;;;;5032682;28;20211;-58
2023/06/08 01:15:26;;;;;;;19.63;10.80;;;;;;;;;;5032468;28;20683;-59
2023/06/08 01:17:53;;;;;;;22.02;11.32;;;;;;;;;;5032442;28;20585;-58
2023/06/08 01:20:29;;;;;;;23.95;12.52;;;;;;;;;;5031162;28;20635;-58
2023/06/08 01:23:20;;;;;;;24.83;11.55;;;;;;;;;;5033151;28;20211;-59
2023/06/08 01:25:46;;;;;;;21.48;11.35;;;;;;;;;;5031215;28;20207;-58
2023/06/08 01:28:13;;;;;;;21.05;11.38;;;;;;;;;;5032156;28;20254;-58
2023/06/08 01:30:39;;;;;;;25.20;11.95;;;;;;;;;;5032490;28;20667;-58
2023/06/08 01:33:04;;;;;;;26.00;12.05;;;;;;;;;;5032101;28;20212;-58
2023/06/08 01:35:30;;;;;;;27.27;11.63;;;;;;;;;;5031649;28;20219;-58
2023/06/08 01:37:56;;;;;;;25.23;11.30;;;;;;;;;;5032190;28;20266;-59
2023/06/08 01:40:21;;;;;;;22.20;12.05;;;;;;;;;;5032187;28;20283;-58
2023/06/08 01:42:47;;;;;;;25.58;13.20;;;;;;;;;;5032320;28;20756;-58
2023/06/08 01:45:13;;;;;;;21.88;12.07;;;;;;;;;;5031365;28;20219;-58
2023/06/08 01:47:40;;;;;;;27.88;12.35;;;;;;;;;;5031517;28;20204;-58
2023/06/08 01:50:05;;;;;;;27.27;13.85;;;;;;;;;;5030523;28;20223;-58
2023/06/08 01:52:31;;;;;;;24.38;12.65;;;;;;;;;;5038232;28;20229;-59
2023/06/08 01:54:56;;;;;;;23.40;11.77;;;;;;;;;;5050764;28;20225;-58
2023/06/08 01:57:21;;;;;;;23.80;13.10;;;;;;;;;;4993079;28;20225;-58
2023/06/08 01:59:46;;;;;;;24.23;12.40;;;;;;;;;;4992380;28;20718;-58
2023/06/08 02:02:12;;;;;;;26.10;13.50;;;;;;;;;;4968520;28;20276;-58
2023/06/08 02:04:37;;;;;;;26.83;12.85;;;;;;;;;;4974766;28;20209;-58
2023/06/08 02:07:02;;;;;;;25.50;12.88;;;;;;;;;;4956109;28;20704;-58
2023/06/08 02:09:28;;;;;;;27.15;13.48;;;;;;;;;;4959184;28;20209;-58
2023/06/08 02:12:06;;;;;;;23.20;12.85;;;;;;;;;;4979588;28;20221;-58
2023/06/08 02:14:31;;;;;;;26.38;13.32;;;;;;;;;;4978444;28;20214;-58
2023/06/08 02:17:00;;;;;;;22.67;12.95;;;;;;;;;;4963957;28;20232;-58
2023/06/08 02:19:26;;;;;;;29.67;14.35;;;;;;;;;;4966536;28;20341;-58
2023/06/08 02:21:51;;;;;;;23.90;12.88;;;;;;;;;;4963990;28;20788;-58
2023/06/08 02:24:18;;;;;;;26.05;14.75;;;;;;;;;;4963166;28;20226;-58
2023/06/08 02:26:43;;;;;;;26.40;13.85;;;;;;;;;;4960259;28;20895;-58
2023/06/08 02:29:09;;;;;;;23.75;13.75;;;;;;;;;;4955765;28;20217;-57
2023/06/08 02:31:35;;;;;;;23.83;13.73;;;;;;;;;;4973899;28;20303;-58
2023/06/08 02:34:01;;;;;;;26.60;14.00;;;;;;;;;;4976756;28;20263;-56
2023/06/08 02:36:31;;;;;;;24.38;13.60;;;;;;;;;;4967927;28;20225;-58
2023/06/08 02:38:57;;;;;;;29.17;14.93;;;;;;;;;;4982012;28;20209;-58
2023/06/08 02:41:22;;;;;;;26.65;14.07;;;;;;;;;;4982230;28;20304;-58
2023/06/08 02:43:47;;;;;;;26.88;14.27;;;;;;;;;;4982330;28;20291;-58
2023/06/08 02:46:12;;;;;;;30.92;15.05;;;;;;;;;;4981993;28;20732;-57
2023/06/08 02:48:38;;;;;;;26.02;14.68;;;;;;;;;;4981333;28;20216;-58
2023/06/08 02:51:03;;;;;;;28.48;15.18;;;;;;;;;;4957198;28;20216;-58
2023/06/08 02:53:28;;;;;;;26.58;16.25;;;;;;;;;;4955898;28;20221;-58
2023/06/08 02:55:54;;;;;;;29.35;16.35;;;;;;;;;;4970592;28;20228;-58
2023/06/08 02:58:20;;;;;;;27.50;14.82;;;;;;;;;;5002066;28;20268;-58
2023/06/08 03:00:46;;;;;;;33.53;15.35;;;;;;;;;;5020955;28;20216;-58
2023/06/08 03:03:12;;;;;;;22.95;14.82;;;;;;;;;;5024433;28;20212;-58
2023/06/08 03:05:39;;;;;;;27.67;16.00;;;;;;;;;;5013133;28;20219;-58
2023/06/08 03:08:04;;;;;;;28.13;16.73;;;;;;;;;;5013603;28;20251;-57
2023/06/08 03:10:29;;;;;;;28.23;16.75;;;;;;;;;;5014904;28;20208;-58
2023/06/08 03:12:55;;;;;;;27.23;16.33;;;;;;;;;;5015753;28;20235;-58
2023/06/08 03:15:22;;;;;;;25.25;16.77;;;;;;;;;;5024954;28;20235;-58
2023/06/08 03:17:48;;;;;;;31.10;16.85;;;;;;;;;;5034787;28;20740;-58
2023/06/08 03:20:13;;;;;;;33.60;17.48;;;;;;;;;;5034708;28;20212;-58
2023/06/08 03:22:41;;;;;;;38.53;17.05;;;;;;;;;;5035114;28;20243;-58
2023/06/08 03:25:07;;;;;;;28.77;16.75;;;;;;;;;;5033632;28;20581;-58
2023/06/08 03:27:32;;;;;;;31.65;17.70;;;;;;;;;;5009172;28;20216;-58
2023/06/08 03:29:58;;;;;;;27.98;17.70;;;;;;;;;;5005103;28;20522;-58
2023/06/08 03:32:23;;;;;;;35.00;18.58;;;;;;;;;;5005112;28;20223;-58
2023/06/08 03:34:48;;;;;;;34.47;18.02;;;;;;;;;;5005291;28;20255;-58
2023/06/08 03:37:14;;;;;;;31.48;17.70;;;;;;;;;;4998891;28;20961;-58
2023/06/08 03:39:39;;;;;;;31.55;18.15;;;;;;;;;;4997568;28;20216;-58
2023/06/08 03:42:05;;;;;;;32.58;19.75;;;;;;;;;;4997016;28;20243;-58
2023/06/08 03:44:30;;;;;;;34.95;18.58;;;;;;;;;;5002930;28;20303;-58
2023/06/08 03:46:56;;;;;;;30.15;18.40;;;;;;;;;;5005293;28;20216;-57
2023/06/08 03:49:21;;;;;;;37.03;19.73;;;;;;;;;;5004999;28;20216;-58
2023/06/08 03:51:46;;;;;;;34.58;19.17;;;;;;;;;;5023245;28;20350;-58
2023/06/08 03:54:12;;;;;;;33.90;19.33;;;;;;;;;;5004531;28;20707;-58
2023/06/08 03:56:37;;;;;;;31.17;18.73;;;;;;;;;;5005213;28;20228;-58
2023/06/08 03:59:03;;;;;;;32.45;19.27;;;;;;;;;;5000591;28;20212;-58
2023/06/08 04:01:30;;;;;;;33.60;18.27;;;;;;;;;;5016213;28;20219;-58
2023/06/08 04:03:55;;;;;;;27.55;18.17;;;;;;;;;;5015837;28;20846;-58
2023/06/08 04:06:20;;;;;;;32.22;19.88;;;;;;;;;;5018942;28;20246;-58
2023/06/08 04:08:46;;;;;;;33.65;20.20;;;;;;;;;;5024190;28;20220;-58
2023/06/08 04:11:11;;;;;;;29.95;18.40;;;;;;;;;;5004067;28;20208;-58
2023/06/08 04:13:38;;;;;;;30.98;18.58;;;;;;;;;;5004631;28;20239;-58
2023/06/08 04:16:07;;;;;;;31.05;17.85;;;;;;;;;;5005703;28;20560;-58
2023/06/08 04:18:32;;;;;;;27.20;18.02;;;;;;;;;;5024090;28;20273;-58
2023/06/08 04:20:57;;;;;;;32.17;19.10;;;;;;;;;;5022125;28;20220;-58
2023/06/08 04:23:23;;;;;;;32.78;20.17;;;;;;;;;;5016016;28;20291;-58
2023/06/08 04:25:48;;;;;;;34.70;19.75;;;;;;;;;;5015880;28;20918;-58
2023/06/08 04:28:13;;;;;;;34.85;19.98;;;;;;;;;;5025871;28;20270;-58
2023/06/08 04:30:38;;;;;;;31.60;19.15;;;;;;;;;;5013849;28;20303;-58
2023/06/08 04:33:04;;;;;;;31.73;19.35;;;;;;;;;;5011670;28;20287;-58
2023/06/08 04:35:29;;;;;;;31.75;20.90;;;;;;;;;;5013725;28;20231;-58
2023/06/08 04:37:55;;;;;;;33.63;20.02;;;;;;;;;;5013936;28;20218;-58
2023/06/08 04:40:20;;;;;;;30.40;19.65;;;;;;;;;;5014599;28;20232;-58
2023/06/08 04:42:46;;;;;;;31.52;19.17;;;;;;;;;;5052487;28;20219;-57
2023/06/08 04:45:11;;;;;;;35.50;19.98;;;;;;;;;;5052841;28;20211;-57
2023/06/08 04:47:37;;;;;;;35.33;19.92;;;;;;;;;;5052834;28;20301;-58
2023/06/08 04:50:02;;;;;;;30.23;19.63;;;;;;;;;;5042996;28;20218;-58
2023/06/08 04:52:30;;;;;;;30.13;19.52;;;;;;;;;;5039311;28;20681;-57
2023/06/08 04:54:58;;;;;;;32.10;20.08;;;;;;;;;;5052138;28;20309;-58
2023/06/08 04:57:23;;;;;;;32.40;19.65;;;;;;;;;;5033366;28;20313;-58
2023/06/08 04:59:48;;;;;;;28.58;18.35;;;;;;;;;;5033159;28;20659;-58
2023/06/08 05:02:14;;;;;;;32.15;19.52;;;;;;;;;;5032246;28;20211;-58
2023/06/08 05:04:39;;;;;;;28.63;19.03;;;;;;;;;;5032441;28;20421;-58
2023/06/08 05:07:05;;;;;;;33.17;18.83;;;;;;;;;;5032760;28;20458;-58
2023/06/08 05:09:30;;;;;;;29.50;18.15;;;;;;;;;;5026269;28;20227;-58
2023/06/08 05:11:55;;;;;;;26.67;17.88;;;;;;;;;;5013507;28;20189;-58
2023/06/08 05:14:21;;;;;;;28.05;17.73;;;;;;;;;;5015174;28;20216;-58
2023/06/08 05:16:46;;;;;;;26.52;17.95;;;;;;;;;;5032454;28;20277;-58
2023/06/08 05:19:13;;;;;;;30.58;18.52;;;;;;;;;;5032557;28;20211;-58
2023/06/08 05:21:39;;;;;;;28.23;17.73;;;;;;;;;;5032808;28;20214;-57
2023/06/08 05:24:05;;;;;;;25.65;17.27;;;;;;;;;;5032167;28;20231;-58
2023/06/08 05:26:30;;;;;;;24.75;16.77;;;;;;;;;;5031188;28;20679;-58
2023/06/08 05:28:56;;;;;;;30.52;17.65;;;;;;;;;;5024071;28;20204;-58
2023/06/08 05:31:21;;;;;;;26.02;16.67;;;;;;;;;;5022525;28;20281;-58
2023/06/08 05:33:46;;;;;;;26.23;16.00;;;;;;;;;;5022393;28;20220;-58
2023/06/08 05:36:13;;;;;;;22.08;16.35;;;;;;;;;;5023519;28;20232;-58
2023/06/08 05:38:38;;;;;;;24.67;15.55;;;;;;;;;;5021622;28;20212;-58
2023/06/08 05:41:06;;;;;;;23.70;15.60;;;;;;;;;;5022809;28;20219;-58
2023/06/08 05:43:31;;;;;;;21.92;15.75;;;;;;;;;;5022219;28;20236;-58
2023/06/08 05:45:57;;;;;;;26.00;15.38;;;;;;;;;;5029234;28;20256;-58
2023/06/08 05:48:22;;;;;;;22.13;15.87;;;;;;;;;;5031115;28;20453;-58
2023/06/08 05:50:47;;;;;;;26.00;15.25;;;;;;;;;;5031983;28;20219;-58
2023/06/08 05:53:12;;;;;;;21.00;13.93;;;;;;;;;;5044470;28;20292;-58
2023/06/08 05:55:41;;;;;;;23.60;14.95;;;;;;;;;;5047125;28;20208;-58
2023/06/08 05:58:07;;;;;;;24.80;15.45;;;;;;;;;;5031485;28;20273;-58
2023/06/08 06:00:32;;;;;;;22.38;14.77;;;;;;;;;;5032568;28;20211;-58
2023/06/08 06:02:57;;;;;;;23.15;14.75;;;;;;;;;;5031843;28;20208;-58
2023/06/08 06:05:23;;;;;;;22.95;15.02;;;;;;;;;;5031228;28;20222;-58
2023/06/08 06:07:48;;;;;;;23.73;14.07;;;;;;;;;;5031443;28;20296;-58
2023/06/08 06:10:14;;;;;;;20.65;13.95;;;;;;;;;;5031417;28;20207;-58
2023/06/08 06:12:39;;;;;;;27.15;14.10;;;;;;;;;;5031712;28;20211;-58
2023/06/08 06:15:05;;;;;;;19.98;13.88;;;;;;;;;;5031836;28;20208;-58
2023/06/08 06:17:30;;;;;;;22.23;13.57;;;;;;;;;;5031699;28;20218;-58
2023/06/08 06:19:55;;;;;;;19.85;13.93;;;;;;;;;;5031672;28;20210;-58
2023/06/08 06:22:21;;;;;;;26.67;14.18;;;;;;;;;;5031614;28;20219;-58
2023/06/08 06:24:46;;;;;;;23.05;13.70;;;;;;;;;;5032063;28;20215;-58
2023/06/08 06:27:11;;;;;;;23.80;14.38;;;;;;;;;;5031213;28;20207;-58
2023/06/08 06:29:37;;;;;;;23.02;15.32;;;;;;;;;;5032183;28;20220;-58
2023/06/08 06:32:02;;;;;;;25.20;13.70;;;;;;;;;;5031401;28;20633;-58
2023/06/08 06:34:27;;;;;;;21.85;13.75;;;;;;;;;;5031145;28;20274;-58
2023/06/08 06:36:53;;;;;;;19.77;13.98;;;;;;;;;;5031878;28;20245;-58
2023/06/08 06:39:19;;;;;;;22.15;14.18;;;;;;;;;;5033822;28;20616;-58
2023/06/08 06:41:44;;;;;;;24.90;14.48;;;;;;;;;;5035452;28;20624;-58
2023/06/08 06:44:09;;;;;;;20.38;13.88;;;;;;;;;;5035681;28;20290;-58
2023/06/08 06:46:35;;;;;;;20.52;12.80;;;;;;;;;;5034486;28;20215;-58
2023/06/08 06:49:00;;;;;;;24.20;13.88;;;;;;;;;;5034954;28;20354;-57
2023/06/08 06:51:25;;;;;;;22.50;13.48;;;;;;;;;;5035690;28;20207;-58
2023/06/08 06:53:51;;;;;;;22.67;14.02;;;;;;;;;;5052465;28;20689;-58
2023/06/08 06:56:16;;;;;;;23.02;14.43;;;;;;;;;;5044797;28;20240;-58
2023/06/08 06:58:44;;;;;;;20.80;13.85;;;;;;;;;;5035469;28;20211;-58
2023/06/08 07:01:15;;;;;;;22.42;14.25;;;;;;;;;;5034743;28;20246;-57
2023/06/08 07:03:42;;;;;;;23.92;14.20;;;;;;;;;;5035441;28;20208;-58
2023/06/08 07:06:08;;;;;;;21.00;13.70;;;;;;;;;;5034851;28;20215;-58
2023/06/08 07:08:34;;;;;;;24.23;14.40;;;;;;;;;;5034892;28;20601;-58
2023/06/08 07:11:01;;;;;;;21.58;14.10;;;;;;;;;;5035592;28;20242;-58
2023/06/08 07:13:26;;;;;;;20.27;13.07;;;;;;;;;;5035059;28;20301;-58
2023/06/08 07:15:51;;;;;;;22.60;12.80;;;;;;;;;;5034819;28;20698;-58
2023/06/08 07:18:17;;;;;;;24.15;14.70;;;;;;;;;;5034946;28;20577;-58
2023/06/08 07:20:42;;;;;;;22.05;12.93;;;;;;;;;;5034992;28;20302;-58
2023/06/08 07:23:07;;;;;;;21.40;12.38;;;;;;;;;;5034300;28;20570;-58
2023/06/08 07:25:33;;;;;;;20.48;12.65;;;;;;;;;;5035306;28;20215;-58
2023/06/08 07:27:58;;;;;;;21.38;12.55;;;;;;;;;;5034924;28;20219;-58
2023/06/08 07:30:24;;;;;;;18.90;11.93;;;;;;;;;;5034292;28;20221;-58
2023/06/08 07:32:49;;;;;;;17.65;11.73;;;;;;;;;;5035076;28;20783;-58
2023/06/08 07:35:15;;;;;;;20.88;11.45;;;;;;;;;;5032818;28;20235;-58
2023/06/08 07:37:40;;;;;;;23.45;11.98;;;;;;;;;;5034196;28;20211;-58
2023/06/08 07:40:09;;;;;;;23.45;12.07;;;;;;;;;;5034529;28;20295;-57
2023/06/08 07:42:34;;;;;;;26.90;11.88;;;;;;;;;;5034690;28;20231;-58
2023/06/08 07:45:00;;;;;;;17.52;11.07;;;;;;;;;;5034257;28;20204;-58
2023/06/08 07:47:25;;;;;;;21.23;10.82;;;;;;;;;;5034438;28;20216;-58
2023/06/08 07:49:51;;;;;;;20.77;11.07;;;;;;;;;;5033840;28;20603;-58
2023/06/08 07:52:16;;;;;;;20.75;10.75;;;;;;;;;;5038187;28;20264;-58
2023/06/08 07:54:42;;;;;;;22.48;11.00;;;;;;;;;;5054279;28;20676;-58
2023/06/08 07:57:07;;;;;;;16.65;10.40;;;;;;;;;;5036146;28;20235;-57
2023/06/08 07:59:33;;;;;;;19.05;9.57;;;;;;;;;;5034515;28;20211;-58
2023/06/08 08:01:58;;;;;;;16.20;10.05;;;;;;;;;;5034508;28;20662;-58
2023/06/08 08:04:23;;;;;;;18.55;9.70;;;;;;;;;;5033510;28;20211;-58
2023/06/08 08:06:49;;;;;;;18.85;9.82;;;;;;;;;;5034250;28;20226;-58
2023/06/08 08:09:14;;;;;;;17.67;9.52;;;;;;;;;;5033829;28;20216;-57
2023/06/08 08:11:39;;;;;;;16.38;9.35;;;;;;;;;;5033948;28;20326;-58
2023/06/08 08:14:09;;;;;;;16.65;9.85;;;;;;;;;;5046526;28;20227;-57
2023/06/08 08:16:38;;;;;;;17.63;9.13;;;;;;;;;;5034225;28;20207;-58
2023/06/08 08:19:03;;;;;;;15.00;9.43;;;;;;;;;;5033279;28;20261;-57
2023/06/08 08:21:28;;;;;;;16.48;9.57;;;;;;;;;;5034150;28;20212;-58
2023/06/08 08:23:54;;;;;;;19.48;9.27;;;;;;;;;;5033643;28;20697;-58
2023/06/08 08:26:20;;;;;;;17.00;8.52;;;;;;;;;;5033280;28;20651;-58
2023/06/08 08:28:46;;;;;;;16.70;9.23;;;;;;;;;;5033977;28;20624;-58
2023/06/08 08:31:11;;;;;;;15.90;8.90;;;;;;;;;;5033451;28;20282;-58
2023/06/08 08:33:36;;;;;;;15.80;9.18;;;;;;;;;;5033315;28;20674;-58
2023/06/08 08:36:02;;;;;;;19.10;8.82;;;;;;;;;;5033361;28;20219;-58
2023/06/08 08:38:27;;;;;;;15.48;9.02;;;;;;;;;;5033324;28;20231;-58
2023/06/08 08:40:53;;;;;;;16.73;8.70;;;;;;;;;;5033315;28;20666;-58
2023/06/08 08:43:22;;;;;;;16.77;9.10;;;;;;;;;;5033220;28;20219;-58
2023/06/08 08:45:48;;;;;;;17.75;10.30;;;;;;;;;;5033570;28;20631;-58
2023/06/08 08:48:14;;;;;;;18.67;10.05;;;;;;;;;;5031286;28;20682;-58
2023/06/08 08:50:39;;;;;;;20.35;9.73;;;;;;;;;;5032377;28;20295;-58
2023/06/08 08:53:06;;;;;;;17.35;9.45;;;;;;;;;;5044500;28;20685;-58
2023/06/08 08:55:33;;;;;;;21.63;10.10;;;;;;;;;;5048396;28;20227;-58
2023/06/08 08:57:59;;;;;;;18.65;11.27;;;;;;;;;;5033274;28;20226;-58
2023/06/08 09:00:26;;;;;;;23.60;11.15;;;;;;;;;;5032397;28;20211;-58
2023/06/08 09:02:52;;;;;;;21.70;10.93;;;;;;;;;;5033382;28;20200;-59
2023/06/08 09:05:17;;;;;;;20.45;11.32;;;;;;;;;;5032500;28;20362;-59
2023/06/08 09:07:43;;;;;;;16.27;10.80;;;;;;;;;;5032578;28;20710;-58
2023/06/08 09:10:14;;;;;;;20.70;11.43;;;;;;;;;;5032717;28;20211;-58
2023/06/08 09:12:44;;;;;;;18.35;10.27;;;;;;;;;;5033009;28;20584;-59
2023/06/08 09:15:11;;;;;;;19.85;10.57;;;;;;;;;;5031823;28;20219;-58
2023/06/08 09:17:40;;;;;;;20.27;10.57;;;;;;;;;;5032960;28;20211;-58
2023/06/08 09:20:12;;;;;;;17.20;10.05;;;;;;;;;;5032437;28;20253;-59
2023/06/08 09:22:38;;;;;;;17.77;9.57;;;;;;;;;;5032588;28;20234;-58
2023/06/08 09:25:04;;;;;;;20.17;10.10;;;;;;;;;;5032322;28;20243;-58
2023/06/08 09:27:30;;;;;;;17.00;9.35;;;;;;;;;;5032781;28;20212;-58
2023/06/08 09:29:57;;;;;;;17.00;9.48;;;;;;;;;;5032345;28;20215;-59
2023/06/08 09:32:27;;;;;;;21.00;9.43;;;;;;;;;;5032654;28;20204;-58
2023/06/08 09:34:53;;;;;;;17.08;9.05;;;;;;;;;;5031039;28;20615;-59
2023/06/08 09:37:19;;;;;;;14.60;8.77;;;;;;;;;;5031661;28;20211;-59
2023/06/08 09:39:44;;;;;;;15.98;8.07;;;;;;;;;;5030927;28;20215;-59
2023/06/08 09:42:10;;;;;;;19.67;9.63;;;;;;;;;;5032487;28;20239;-58
2023/06/08 09:44:35;;;;;;;16.13;9.38;;;;;;;;;;5032042;28;20283;-58
2023/06/08 09:47:13;;;;;;;16.27;8.27;;;;;;;;;;5032034;28;20215;-57
2023/06/08 09:49:38;;;;;;;16.75;7.82;;;;;;;;;;5030730;28;20219;-59
2023/06/08 09:52:03;;;;;;;16.95;8.45;;;;;;;;;;5034759;28;20210;-58
2023/06/08 09:54:29;;;;;;;14.60;9.00;;;;;;;;;;5052054;28;20291;-58
2023/06/08 09:56:54;;;;;;;15.60;8.38;;;;;;;;;;5036404;28;20798;-59
2023/06/08 09:59:20;;;;;;;13.38;8.00;;;;;;;;;;5031957;28;20223;-59
2023/06/08 10:01:49;;;;;;;12.63;8.15;;;;;;;;;;5032199;28;20291;-59
2023/06/08 10:04:20;;;;;;;18.17;8.70;;;;;;;;;;5031286;28;20661;-58
2023/06/08 10:06:45;;;;;;;13.52;8.52;;;;;;;;;;5032401;28;20206;-58
2023/06/08 10:09:11;;;;;;;20.00;8.50;;;;;;;;;;5030137;28;20204;-58
2023/06/08 10:11:36;;;;;;;14.07;8.27;;;;;;;;;;5031684;28;20246;-59
2023/06/08 10:14:01;;;;;;;12.98;7.93;;;;;;;;;;5031430;28;20265;-58
2023/06/08 10:16:27;;;;;;;15.32;7.43;;;;;;;;;;5031798;28;20239;-59
2023/06/08 10:18:52;;;;;;;15.85;8.25;;;;;;;;;;5030532;28;20215;-59
2023/06/08 10:21:17;;;;;;;13.20;7.43;;;;;;;;;;5030426;28;20629;-58
2023/06/08 10:23:42;;;;;;;13.55;7.60;;;;;;;;;;5030732;28;20216;-59
2023/06/08 10:26:08;;;;;;;12.55;7.22;;;;;;;;;;5029581;28;20210;-58
2023/06/08 10:28:33;;;;;;;16.75;8.32;;;;;;;;;;5044467;28;20227;-58
2023/06/08 10:30:59;;;;;;;12.48;7.50;;;;;;;;;;5051793;28;20203;-59
2023/06/08 10:33:25;;;;;;;15.60;7.32;;;;;;;;;;5049777;28;20242;-59
2023/06/08 10:36:03;;;;;;;12.65;7.97;;;;;;;;;;5051402;28;20218;-59
2023/06/08 10:38:29;;;;;;;15.95;8.25;;;;;;;;;;5050643;28;20214;-59
2023/06/08 10:40:55;;;;;;;14.13;7.97;;;;;;;;;;5030060;28;20219;-59
2023/06/08 10:43:25;;;;;;;17.90;8.30;;;;;;;;;;5031564;28;20224;-58
2023/06/08 10:45:51;;;;;;;13.38;7.38;;;;;;;;;;5030048;28;20265;-59
2023/06/08 10:48:16;;;;;;;12.90;7.90;;;;;;;;;;5031532;28;20223;-59
2023/06/08 10:50:42;;;;;;;17.77;7.93;;;;;;;;;;5031719;28;20260;-59
2023/06/08 10:53:07;;;;;;;14.35;7.82;;;;;;;;;;5042485;28;20211;-59
2023/06/08 10:55:33;;;;;;;13.90;7.47;;;;;;;;;;5046985;28;20235;-59
2023/06/08 10:58:06;;;;;;;11.93;7.20;;;;;;;;;;5031793;28;20234;-59
2023/06/08 11:00:32;;;;;;;14.05;7.20;;;;;;;;;;5031109;28;20208;-59
2023/06/08 11:02:58;;;;;;;13.75;8.32;;;;;;;;;;5031913;28;20239;-59
2023/06/08 11:05:24;;;;;;;15.30;7.55;;;;;;;;;;5031028;28;20671;-59
2023/06/08 11:07:50;;;;;;;12.98;7.70;;;;;;;;;;5031445;28;20431;-59
2023/06/08 11:10:15;;;;;;;16.20;7.50;;;;;;;;;;5031164;28;20220;-59
2023/06/08 11:12:40;;;;;;;14.35;7.10;;;;;;;;;;5031440;28;20685;-59
2023/06/08 11:15:06;;;;;;;13.68;8.00;;;;;;;;;;5030432;28;20270;-59
2023/06/08 11:17:35;;;;;;;14.63;7.45;;;;;;;;;;5031731;28;20230;-59
2023/06/08 11:20:05;;;;;;;15.32;7.60;;;;;;;;;;5029895;28;20220;-59
2023/06/08 11:22:30;;;;;;;15.25;8.20;;;;;;;;;;5031257;28;20216;-59
2023/06/08 11:24:55;;;;;;;14.70;8.10;;;;;;;;;;5030101;28;20234;-59
2023/06/08 11:27:21;;;;;;;12.55;7.40;;;;;;;;;;5034472;28;20235;-59
2023/06/08 11:29:46;;;;;;;12.38;7.20;;;;;;;;;;5034853;28;20220;-59
2023/06/08 11:32:12;;;;;;;12.23;6.47;;;;;;;;;;5034473;28;20573;-60
2023/06/08 11:34:38;;;;;;;14.60;7.30;;;;;;;;;;5035246;28;20256;-59
2023/06/08 11:37:03;;;;;;;14.65;7.03;;;;;;;;;;5034043;28;20204;-59
2023/06/08 11:39:33;;;;;;;10.82;7.32;;;;;;;;;;5033315;28;20682;-59
2023/06/08 11:41:58;;;;;;;12.25;7.20;;;;;;;;;;5034826;28;20203;-59
2023/06/08 11:44:26;;;;;;;10.80;6.88;;;;;;;;;;5033888;28;20277;-60
2023/06/08 11:46:52;;;;;;;13.85;6.85;;;;;;;;;;5034723;28;20678;-60
2023/06/08 11:49:17;;;;;;;12.27;7.13;;;;;;;;;;5033827;28;20220;-59
2023/06/08 11:51:46;;;;;;;12.98;7.32;;;;;;;;;;5034869;28;20307;-60
2023/06/08 11:54:12;;;;;;;17.17;7.70;;;;;;;;;;5014223;28;20691;-60
2023/06/08 11:56:37;;;;;;;15.20;8.65;;;;;;;;;;5039802;28;20242;-60
2023/06/08 11:59:06;;;;;;;14.52;8.52;;;;;;;;;;5054187;28;20214;-59
2023/06/08 12:01:31;;;;;;;15.45;7.55;;;;;;;;;;5054152;28;20299;-60
2023/06/08 12:03:56;;;;;;;12.48;7.10;;;;;;;;;;5053994;28;20298;-60
2023/06/08 12:06:26;;;;;;;12.15;7.43;;;;;;;;;;5053793;28;20238;-60
2023/06/08 12:08:52;;;;;;;13.40;7.35;;;;;;;;;;5054261;28;20199;-60
2023/06/08 12:11:19;;;;;;;12.45;6.80;;;;;;;;;;5053241;28;20577;-60
2023/06/08 12:13:44;;;;;;;14.82;7.22;;;;;;;;;;5053886;28;20219;-59
2023/06/08 12:16:10;;;;;;;11.82;7.10;;;;;;;;;;5036017;28;20293;-59
2023/06/08 12:18:42;;;;;;;12.35;6.18;;;;;;;;;;5034001;28;20218;-59
2023/06/08 12:21:08;;;;;;;13.07;6.97;;;;;;;;;;5033534;28;20204;-59
2023/06/08 12:23:33;;;;;;;12.15;6.60;;;;;;;;;;5034282;28;20212;-59
2023/06/08 12:25:58;;;;;;;10.95;6.38;;;;;;;;;;5033388;28;20294;-60
2023/06/08 12:28:24;;;;;;;9.95;5.22;;;;;;;;;;5033233;28;20229;-59
2023/06/08 12:30:50;;;;;;;11.18;5.57;;;;;;;;;;5034173;28;20204;-59
2023/06/08 12:33:18;;;;;;;9.85;5.70;;;;;;;;;;5032996;28;20223;-59
2023/06/08 12:35:44;;;;;;;10.27;5.40;;;;;;;;;;5033392;28;20223;-60
2023/06/08 12:38:09;;;;;;;13.25;5.35;;;;;;;;;;5033120;28;20204;-60
2023/06/08 12:40:34;;;;;;;12.65;6.03;;;;;;;;;;5033201;28;20207;-60
2023/06/08 12:43:00;;;;;;;12.15;5.07;;;;;;;;;;5033379;28;20208;-60
2023/06/08 12:45:25;;;;;;;11.43;5.28;;;;;;;;;;5032891;28;20223;-60
2023/06/08 12:47:50;;;;;;;14.55;4.72;;;;;;;;;;5033569;28;20235;-60
2023/06/08 12:50:22;;;;;;;11.45;5.05;;;;;;;;;;5033051;28;20247;-60
2023/06/08 12:52:48;;;;;;;10.07;4.85;;;;;;;;;;5041826;28;20207;-60
2023/06/08 12:55:13;;;;;;;8.75;4.65;;;;;;;;;;5051585;28;20226;-60
2023/06/08 12:57:38;;;;;;;9.05;4.20;;;;;;;;;;4993761;28;20221;-60
2023/06/08 13:00:04;;;;;;;8.85;4.43;;;;;;;;;;4993320;28;20296;-60
2023/06/08 13:02:30;;;;;;;8.68;4.65;;;;;;;;;;4994048;28;20279;-60
2023/06/08 13:04:55;;;;;;;7.70;4.30;;;;;;;;;;4993782;28;20676;-60
2023/06/08 13:07:20;;;;;;;9.88;4.65;;;;;;;;;;4993024;28;20312;-60
2023/06/08 13:09:46;;;;;;;9.35;4.75;;;;;;;;;;4994011;28;20300;-59
2023/06/08 13:12:11;;;;;;;10.25;5.00;;;;;;;;;;4993080;28;20663;-60
2023/06/08 13:14:37;;;;;;;8.90;4.68;;;;;;;;;;4993069;28;20672;-60
2023/06/08 13:17:02;;;;;;;11.10;4.88;;;;;;;;;;4993330;28;20213;-60
2023/06/08 13:19:28;;;;;;;8.38;4.45;;;;;;;;;;4993645;28;20209;-60
2023/06/08 13:21:53;;;;;;;10.80;4.22;;;;;;;;;;4993118;28;20214;-60
2023/06/08 13:24:20;;;;;;;8.15;4.32;;;;;;;;;;4993193;28;20205;-60
2023/06/08 13:26:47;;;;;;;8.35;4.10;;;;;;;;;;4993405;28;20233;-60
2023/06/08 13:29:13;;;;;;;10.35;4.40;;;;;;;;;;4992507;28;20631;-60
2023/06/08 13:31:39;;;;;;;9.93;4.50;;;;;;;;;;4993578;28;20209;-60
2023/06/08 13:34:05;;;;;;;9.60;4.38;;;;;;;;;;4992940;28;20297;-59
2023/06/08 13:36:30;;;;;;;11.48;4.13;;;;;;;;;;4992895;28;20217;-59
2023/06/08 13:38:56;;;;;;;8.98;4.85;;;;;;;;;;4993072;28;20233;-59
2023/06/08 13:41:21;;;;;;;7.40;3.83;;;;;;;;;;4992923;28;20228;-60
2023/06/08 13:43:46;;;;;;;8.38;4.47;;;;;;;;;;4992524;28;20236;-59
2023/06/08 13:46:12;;;;;;;12.02;4.80;;;;;;;;;;4992672;28;20303;-60
2023/06/08 13:48:37;;;;;;;10.95;4.70;;;;;;;;;;4992503;28;20236;-59
2023/06/08 13:51:03;;;;;;;7.38;4.43;;;;;;;;;;4992435;28;20300;-60
2023/06/08 13:53:28;;;;;;;8.20;4.28;;;;;;;;;;5007004;28;20212;-59
2023/06/08 13:55:54;;;;;;;10.05;4.30;;;;;;;;;;5015907;28;20224;-59
2023/06/08 13:58:20;;;;;;;9.32;4.30;;;;;;;;;;5031888;28;20284;-59
2023/06/08 14:00:45;;;;;;;7.55;4.45;;;;;;;;;;5032111;28;20678;-60
2023/06/08 14:03:10;;;;;;;7.70;4.80;;;;;;;;;;5031646;28;20216;-60
2023/06/08 14:05:36;;;;;;;11.63;4.82;;;;;;;;;;5032384;28;20207;-60
2023/06/08 14:08:01;;;;;;;9.52;4.55;;;;;;;;;;5031548;28;20215;-60
2023/06/08 14:10:26;;;;;;;9.77;4.50;;;;;;;;;;5031780;28;20215;-60
2023/06/08 14:12:52;;;;;;;8.73;4.15;;;;;;;;;;5032141;28;20281;-59
2023/06/08 14:15:17;;;;;;;7.43;4.20;;;;;;;;;;5031231;28;20224;-59
2023/06/08 14:17:43;;;;;;;9.75;3.88;;;;;;;;;;5031580;28;20562;-59